Time;durP1;ratioP1;P1;durP2;ratioP2;P2;SDS_P1;SDS_P2;PMS_P1;PMS_P2;Temp;Humidity;BMP_temperature;BMP_pressure;BME280_temperature;BME280_humidity;BME280_pressure;Samples;Min_cycle;Max_cycle;Signal;HPM_P1;HPM_P2
2022/10/17 00:01:48;;;;;;;1999.90;999.90;;;11.80;99.90;;;;;;5090870;27;20078;-65
2022/10/17 00:04:14;;;;;;;1999.90;999.90;;;11.80;99.90;;;;;;5090978;28;20715;-65
2022/10/17 00:06:39;;;;;;;1999.90;999.90;;;11.80;99.90;;;;;;5107407;28;20044;-65
2022/10/17 00:09:05;;;;;;;1999.90;999.90;;;11.80;99.90;;;;;;5116034;27;20039;-66
2022/10/17 00:11:31;;;;;;;1999.90;999.90;;;11.80;99.90;;;;;;5108363;28;20400;-65
2022/10/17 00:13:56;;;;;;;1999.90;999.90;;;11.80;99.90;;;;;;5070613;28;20144;-66
2022/10/17 00:16:28;;;;;;;1999.90;999.90;;;11.80;99.90;;;;;;5109486;27;20047;-65
2022/10/17 00:18:53;;;;;;;1999.90;999.90;;;11.80;99.90;;;;;;5112348;27;20428;-65
2022/10/17 00:21:20;;;;;;;1999.90;999.90;;;11.80;99.90;;;;;;5089228;28;20047;-66
2022/10/17 00:23:46;;;;;;;1999.90;999.90;;;11.80;99.90;;;;;;5112422;27;20031;-65
2022/10/17 00:26:12;;;;;;;1999.90;999.90;;;11.80;99.90;;;;;;5108754;27;20043;-65
2022/10/17 00:28:38;;;;;;;1999.90;999.90;;;11.90;99.90;;;;;;5080212;28;20541;-66
2022/10/17 00:31:05;;;;;;;1999.90;999.90;;;11.90;99.90;;;;;;5075241;28;20151;-66
2022/10/17 00:33:32;;;;;;;1999.90;999.90;;;11.90;99.90;;;;;;5107665;28;20035;-66
2022/10/17 00:36:12;;;;;;;1999.90;999.90;;;12.00;99.90;;;;;;5108085;28;20046;-66
2022/10/17 00:38:38;;;;;;;1999.90;999.90;;;12.00;99.90;;;;;;5090983;28;20531;-65
2022/10/17 00:41:04;;;;;;;1999.90;999.90;;;12.00;99.90;;;;;;5090099;28;20059;-66
2022/10/17 00:43:51;;;;;;;1999.90;999.90;;;12.00;99.90;;;;;;5089048;28;20051;-65
2022/10/17 00:46:17;;;;;;;1999.90;999.90;;;12.10;99.90;;;;;;5098305;27;20074;-66
2022/10/17 00:48:43;;;;;;;1999.90;999.90;;;12.10;99.90;;;;;;5109091;27;20040;-65
2022/10/17 00:51:09;;;;;;;1999.90;999.90;;;12.10;99.90;;;;;;5107995;28;20073;-66
2022/10/17 00:53:38;;;;;;;1999.90;999.90;;;12.20;99.90;;;;;;5089519;28;20046;-65
2022/10/17 00:56:04;;;;;;;1999.90;999.90;;;12.20;99.90;;;;;;5105901;28;20075;-66
2022/10/17 00:58:30;;;;;;;1999.90;999.90;;;12.20;99.90;;;;;;5108073;28;20460;-65
2022/10/17 01:00:55;;;;;;;1999.90;999.90;;;12.30;99.90;;;;;;5089667;28;20127;-65
2022/10/17 01:03:21;;;;;;;1999.90;999.90;;;12.30;99.90;;;;;;5109598;27;20040;-65
2022/10/17 01:05:47;;;;;;;1999.90;999.90;;;12.30;99.90;;;;;;5107649;28;20431;-65
2022/10/17 01:08:13;;;;;;;1999.90;999.90;;;12.30;99.90;;;;;;5107861;28;20035;-65
2022/10/17 01:10:53;;;;;;;1999.90;999.90;;;12.30;99.90;;;;;;5107022;27;20046;-66
2022/10/17 01:13:28;;;;;;;1999.90;999.90;;;12.30;99.90;;;;;;5108138;27;20046;-66
2022/10/17 01:16:30;;;;;;;1999.90;999.90;;;12.40;99.90;;;;;;5083813;28;20035;-66
2022/10/17 01:18:56;;;;;;;1999.90;999.90;;;12.40;99.90;;;;;;5108389;28;20054;-66
2022/10/17 01:21:50;;;;;;;1999.90;999.90;;;12.40;99.90;;;;;;5106742;28;20420;-65
2022/10/17 01:24:18;;;;;;;1999.90;999.90;;;12.40;99.90;;;;;;5107840;28;20043;-66
2022/10/17 01:27:02;;;;;;;1999.90;999.90;;;12.50;99.90;;;;;;5103372;27;20607;-65
2022/10/17 01:29:39;;;;;;;1999.90;999.90;;;12.50;99.90;;;;;;5102098;28;20035;-65
2022/10/17 01:32:31;;;;;;;1999.90;999.90;;;12.50;99.90;;;;;;5106099;28;20092;-65
2022/10/17 01:35:07;;;;;;;1999.90;999.90;;;12.60;99.90;;;;;;5078367;28;20043;-66
2022/10/17 01:37:47;;;;;;;1999.90;999.90;;;12.60;99.90;;;;;;5090096;28;20440;-66
2022/10/17 01:40:25;;;;;;;1999.90;999.90;;;12.60;99.90;;;;;;5087096;28;20117;-65
2022/10/17 01:43:31;;;;;;;1999.90;999.90;;;12.70;99.90;;;;;;5107916;28;20047;-65
2022/10/17 01:46:03;;;;;;;1999.90;999.90;;;12.70;99.90;;;;;;5105663;28;20059;-65
2022/10/17 01:48:35;;;;;;;1999.90;999.90;;;12.70;99.90;;;;;;5108157;28;20047;-66
2022/10/17 01:51:17;;;;;;;1999.90;999.90;;;12.70;99.90;;;;;;5105876;28;20040;-66
2022/10/17 01:53:55;;;;;;;1999.90;999.90;;;12.70;99.90;;;;;;5119633;28;20127;-66
2022/10/17 01:56:24;;;;;;;1999.90;999.90;;;12.70;99.90;;;;;;5106886;28;20378;-66
2022/10/17 01:58:54;;;;;;;1999.90;999.90;;;12.60;99.90;;;;;;5108651;28;20495;-66
2022/10/17 02:01:21;;;;;;;1999.90;999.90;;;12.60;99.90;;;;;;5098207;28;20071;-66
2022/10/17 02:03:49;;;;;;;1999.90;999.90;;;12.60;99.90;;;;;;5093109;27;20039;-65
2022/10/17 02:06:15;;;;;;;1999.90;999.90;;;12.50;99.90;;;;;;5105580;28;20048;-66
2022/10/17 02:08:44;;;;;;;1999.90;999.90;;;12.50;99.90;;;;;;5123991;27;20066;-66
2022/10/17 02:11:19;;;;;;;1999.90;999.90;;;12.40;99.90;;;;;;5090892;28;20097;-65
2022/10/17 02:13:47;;;;;;;1999.90;999.90;;;12.40;99.90;;;;;;5101895;28;20039;-65
2022/10/17 02:16:25;;;;;;;1999.90;999.90;;;12.40;99.90;;;;;;5126415;27;20074;-67
2022/10/17 02:19:14;;;;;;;1999.90;999.90;;;12.30;99.90;;;;;;5119038;27;20039;-66
2022/10/17 02:22:01;;;;;;;1999.90;999.90;;;12.30;99.90;;;;;;5087916;28;20054;-66
2022/10/17 02:24:48;;;;;;;1999.90;999.90;;;12.30;99.90;;;;;;5098492;27;20133;-66
2022/10/17 02:27:32;;;;;;;1999.90;999.90;;;12.30;99.90;;;;;;5115512;27;20047;-66
2022/10/17 02:30:14;;;;;;;1999.90;999.90;;;12.30;99.90;;;;;;5106470;28;20040;-65
2022/10/17 02:32:56;;;;;;;1999.90;999.90;;;12.30;99.90;;;;;;5109065;27;20533;-66
2022/10/17 02:35:26;;;;;;;1999.90;999.90;;;12.30;99.90;;;;;;5088227;28;20139;-65
2022/10/17 02:37:52;;;;;;;1999.90;999.90;;;12.30;99.90;;;;;;5110338;27;20046;-66
2022/10/17 02:40:21;;;;;;;1999.90;999.90;;;12.30;99.90;;;;;;5093321;28;20054;-65
2022/10/17 02:42:49;;;;;;;1999.90;999.90;;;12.40;99.90;;;;;;5100289;28;20118;-66
2022/10/17 02:45:15;;;;;;;1999.90;999.90;;;12.40;99.90;;;;;;5109560;27;20524;-65
2022/10/17 02:47:51;;;;;;;1999.90;999.90;;;12.40;99.90;;;;;;5111819;27;20104;-65
2022/10/17 02:50:20;;;;;;;1999.90;999.90;;;12.40;99.90;;;;;;5104071;28;20162;-66
2022/10/17 02:52:54;;;;;;;1999.90;999.90;;;12.40;99.90;;;;;;5091008;28;20036;-66
2022/10/17 02:55:30;;;;;;;1999.90;999.90;;;12.40;99.90;;;;;;5094438;27;20046;-66
2022/10/17 02:58:02;;;;;;;1999.90;999.90;;;12.40;99.90;;;;;;5094740;27;20042;-66
2022/10/17 03:00:29;;;;;;;1999.90;999.90;;;12.40;99.90;;;;;;5088418;28;20051;-66
2022/10/17 03:02:55;;;;;;;1999.90;999.90;;;12.40;99.90;;;;;;5095233;28;20397;-66
2022/10/17 03:05:26;;;;;;;1999.90;999.90;;;12.50;99.90;;;;;;5124231;27;20032;-66
2022/10/17 03:07:53;;;;;;;1999.90;999.90;;;12.50;99.90;;;;;;5069926;28;20377;-65
2022/10/17 03:10:21;;;;;;;1999.90;999.90;;;12.50;99.90;;;;;;5082758;27;20147;-66
2022/10/17 03:12:46;;;;;;;1999.90;999.90;;;12.50;99.90;;;;;;5110811;27;20044;-66
2022/10/17 03:15:13;;;;;;;1999.90;999.90;;;12.60;99.90;;;;;;5109884;27;20098;-66
2022/10/17 03:17:38;;;;;;;1999.90;999.90;;;12.60;99.90;;;;;;5112641;27;20147;-66
2022/10/17 03:20:06;;;;;;;1999.90;999.90;;;12.60;99.90;;;;;;5094580;28;20669;-66
2022/10/17 03:22:31;;;;;;;1999.90;999.90;;;12.60;99.90;;;;;;5113983;27;20110;-66
2022/10/17 03:24:57;;;;;;;1999.90;999.90;;;12.60;99.90;;;;;;5101246;28;20394;-66
2022/10/17 03:27:23;;;;;;;1999.90;999.90;;;12.60;99.90;;;;;;5108551;28;20036;-66
2022/10/17 03:29:48;;;;;;;1999.90;999.90;;;12.60;99.90;;;;;;5111997;27;20114;-66
2022/10/17 03:32:14;;;;;;;1999.90;999.90;;;12.60;99.90;;;;;;5116182;27;20042;-66
2022/10/17 03:34:39;;;;;;;1999.90;999.90;;;12.60;99.90;;;;;;5113364;27;20040;-66
2022/10/17 03:37:05;;;;;;;1999.90;999.90;;;12.60;99.90;;;;;;5090396;28;20401;-65
2022/10/17 03:39:30;;;;;;;1999.90;999.90;;;12.60;99.90;;;;;;5098620;28;20761;-66
2022/10/17 03:41:56;;;;;;;1999.90;999.90;;;12.70;99.90;;;;;;5090404;28;20126;-66
2022/10/17 03:44:21;;;;;;;1999.90;999.90;;;12.70;99.90;;;;;;5098326;28;20051;-66
2022/10/17 03:46:47;;;;;;;1999.90;999.90;;;12.70;99.90;;;;;;5091513;28;20097;-66
2022/10/17 03:49:13;;;;;;;1999.90;999.90;;;12.70;99.90;;;;;;5093723;28;20058;-65
2022/10/17 03:51:38;;;;;;;1999.90;999.90;;;12.70;99.90;;;;;;5092519;28;20040;-66
2022/10/17 03:54:04;;;;;;;1999.90;999.90;;;12.70;99.90;;;;;;5099231;28;20044;-65
2022/10/17 03:56:30;;;;;;;1999.90;999.90;;;12.80;99.90;;;;;;5109422;28;20031;-66
2022/10/17 03:58:55;;;;;;;1999.90;999.90;;;12.80;99.90;;;;;;5110562;27;20487;-66
2022/10/17 04:01:21;;;;;;;1999.90;999.90;;;12.80;99.90;;;;;;5121211;27;20160;-66
2022/10/17 04:03:51;;;;;;;1999.90;999.90;;;12.80;99.90;;;;;;5089668;27;20465;-66
2022/10/17 04:06:18;;;;;;;1999.90;999.90;;;12.80;99.90;;;;;;5109317;28;20052;-66
2022/10/17 04:08:44;;;;;;;1999.90;999.90;;;12.80;99.90;;;;;;5108724;27;20108;-66
2022/10/17 04:11:12;;;;;;;1999.90;999.90;;;12.90;99.90;;;;;;5109569;27;20082;-66
2022/10/17 04:13:38;;;;;;;1999.90;999.90;;;12.80;99.90;;;;;;5101763;27;20039;-66
2022/10/17 04:16:11;;;;;;;1999.90;999.90;;;12.90;99.90;;;;;;5112561;27;20043;-66
2022/10/17 04:18:37;;;;;;;1999.90;999.90;;;12.90;99.90;;;;;;5108782;28;20036;-66
2022/10/17 04:21:06;;;;;;;1999.90;999.90;;;13.00;99.90;;;;;;5110493;27;20492;-66
2022/10/17 04:23:32;;;;;;;1999.90;999.90;;;13.00;99.90;;;;;;5108619;27;20054;-66
2022/10/17 04:25:59;;;;;;;1999.90;999.90;;;13.10;99.90;;;;;;5097869;28;20043;-66
2022/10/17 04:28:26;;;;;;;1999.90;999.90;;;13.00;99.90;;;;;;5075547;28;20378;-66
2022/10/17 04:30:56;;;;;;;1999.90;999.90;;;13.10;99.90;;;;;;5110579;27;20039;-66
2022/10/17 04:33:22;;;;;;;1999.90;999.90;;;13.10;99.90;;;;;;5107951;28;20160;-66
2022/10/17 04:36:11;;;;;;;1999.90;999.90;;;13.10;99.90;;;;;;5089976;28;20119;-66
2022/10/17 04:38:37;;;;;;;1999.90;999.90;;;13.20;99.90;;;;;;5106781;28;20500;-66
2022/10/17 04:41:06;;;;;;;1999.90;999.90;;;13.30;99.90;;;;;;5108222;28;20042;-66
2022/10/17 04:43:34;;;;;;;1999.90;999.90;;;13.30;99.90;;;;;;5085712;28;20421;-66
2022/10/17 04:46:01;;;;;;;1999.90;999.90;;;13.40;99.90;;;;;;5089487;28;20035;-66
2022/10/17 04:48:28;;;;;;;1999.90;999.90;;;13.40;99.90;;;;;;5107424;27;20039;-66
2022/10/17 04:50:58;;;;;;;1999.90;999.90;;;13.50;99.90;;;;;;5106863;28;20048;-65
2022/10/17 04:53:25;;;;;;;1999.90;999.90;;;13.60;99.90;;;;;;5107774;28;20040;-66
2022/10/17 04:55:51;;;;;;;1999.90;999.90;;;13.60;99.90;;;;;;5110403;27;20064;-66
2022/10/17 04:58:17;;;;;;;1999.90;999.90;;;13.70;99.90;;;;;;5115596;27;20511;-65
2022/10/17 05:00:42;;;;;;;1999.90;999.90;;;13.70;99.90;;;;;;5118506;27;20054;-66
2022/10/17 05:03:08;;;;;;;1999.90;999.90;;;13.80;99.90;;;;;;5105072;27;20126;-66
2022/10/17 05:05:37;;;;;;;1999.90;999.90;;;13.80;99.90;;;;;;5088547;28;20067;-65
2022/10/17 05:08:03;;;;;;;1999.90;999.90;;;13.90;99.90;;;;;;5108784;28;20078;-66
2022/10/17 05:10:29;;;;;;;1999.90;999.90;;;14.00;99.90;;;;;;5108449;27;20077;-66
2022/10/17 05:12:54;;;;;;;1999.90;999.90;;;14.00;99.90;;;;;;5089909;28;20040;-66
2022/10/17 05:15:20;;;;;;;1999.90;999.90;;;14.00;99.90;;;;;;5108256;28;20050;-66
2022/10/17 05:17:45;;;;;;;1999.90;999.90;;;14.10;99.90;;;;;;5077638;28;20046;-66
2022/10/17 05:20:11;;;;;;;1999.90;999.90;;;14.10;99.90;;;;;;5087571;28;20039;-66
2022/10/17 05:22:37;;;;;;;1999.90;999.90;;;14.10;99.90;;;;;;5106522;27;20662;-66
2022/10/17 05:25:03;;;;;;;1999.90;999.90;;;14.20;99.90;;;;;;5089218;28;20043;-66
2022/10/17 05:27:28;;;;;;;1999.90;999.90;;;14.20;99.90;;;;;;5108153;27;20047;-66
2022/10/17 05:29:54;;;;;;;1999.90;999.90;;;14.20;99.90;;;;;;5107571;28;20120;-66
2022/10/17 05:32:19;;;;;;;1999.90;999.90;;;14.20;99.90;;;;;;5107363;28;20047;-66
2022/10/17 05:34:45;;;;;;;1999.90;999.90;;;14.20;99.90;;;;;;5108454;27;20032;-66
2022/10/17 05:37:10;;;;;;;1999.90;999.90;;;14.20;99.90;;;;;;5089774;28;20507;-66
2022/10/17 05:39:36;;;;;;;1999.90;999.90;;;14.20;99.90;;;;;;5107680;28;20510;-66
2022/10/17 05:42:02;;;;;;;1999.90;999.90;;;14.20;99.90;;;;;;5106132;28;20043;-66
2022/10/17 05:44:27;;;;;;;1999.90;999.90;;;14.20;99.90;;;;;;5107893;28;20437;-66
2022/10/17 05:46:53;;;;;;;1999.90;999.90;;;14.20;99.90;;;;;;5112034;28;20048;-66
2022/10/17 05:49:18;;;;;;;1999.90;999.90;;;14.20;99.90;;;;;;5096484;28;20043;-66
2022/10/17 05:51:44;;;;;;;1999.90;999.90;;;14.20;99.90;;;;;;5113361;28;20450;-65
2022/10/17 05:54:09;;;;;;;1999.90;999.90;;;14.20;99.90;;;;;;5096709;28;20611;-66
2022/10/17 05:56:35;;;;;;;1999.90;999.90;;;14.30;99.90;;;;;;5113301;28;20495;-66
2022/10/17 05:59:01;;;;;;;1999.90;999.90;;;14.30;99.90;;;;;;5101197;28;20405;-66
2022/10/17 06:01:27;;;;;;;1999.90;999.90;;;14.30;99.90;;;;;;5089142;28;20055;-66
2022/10/17 06:03:52;;;;;;;1999.90;999.90;;;14.30;99.90;;;;;;5069640;28;20047;-66
2022/10/17 06:06:18;;;;;;;1999.90;999.90;;;14.30;99.90;;;;;;5078208;28;20047;-66
2022/10/17 06:08:44;;;;;;;1999.90;999.90;;;14.20;99.90;;;;;;5094094;28;20504;-66
2022/10/17 06:11:10;;;;;;;1999.90;999.90;;;14.20;99.90;;;;;;5099248;28;20402;-67
2022/10/17 06:13:37;;;;;;;1999.90;999.90;;;14.20;99.90;;;;;;5088188;28;20114;-66
2022/10/17 06:16:03;;;;;;;1999.90;999.90;;;14.20;99.90;;;;;;5077428;28;20039;-66
2022/10/17 06:18:28;;;;;;;1999.90;999.90;;;14.20;99.90;;;;;;5098177;28;20101;-66
2022/10/17 06:21:01;;;;;;;1999.90;999.90;;;14.20;99.90;;;;;;5088554;28;20054;-66
2022/10/17 06:23:27;;;;;;;1999.90;999.90;;;14.20;99.90;;;;;;5089528;28;20416;-66
2022/10/17 06:25:52;;;;;;;1999.90;999.90;;;14.30;99.90;;;;;;5088515;28;20047;-66
2022/10/17 06:28:18;;;;;;;1999.90;999.90;;;14.30;99.90;;;;;;5107632;28;20086;-66
2022/10/17 06:30:44;;;;;;;1999.90;999.90;;;14.30;99.90;;;;;;5107088;28;20069;-66
2022/10/17 06:33:10;;;;;;;1999.90;999.90;;;14.30;99.90;;;;;;5107643;28;20047;-66
2022/10/17 06:35:35;;;;;;;1999.90;999.90;;;14.40;99.90;;;;;;5107872;28;20035;-66
2022/10/17 06:38:02;;;;;;;1999.90;999.90;;;14.40;99.90;;;;;;5106270;28;20040;-66
2022/10/17 06:40:29;;;;;;;1999.90;999.90;;;14.40;99.90;;;;;;5094045;28;20044;-66
2022/10/17 06:42:55;;;;;;;1999.90;999.90;;;14.40;99.90;;;;;;5091371;28;20401;-66
2022/10/17 06:45:20;;;;;;;1999.90;999.90;;;14.50;99.90;;;;;;5087847;28;20545;-66
2022/10/17 06:47:46;;;;;;;1999.90;999.90;;;14.50;99.90;;;;;;5106531;28;20079;-66
2022/10/17 06:50:11;;;;;;;1999.90;999.90;;;14.50;99.90;;;;;;5102054;28;20051;-65
2022/10/17 06:52:37;;;;;;;1999.90;999.90;;;14.50;99.90;;;;;;5110297;28;20492;-66
2022/10/17 06:55:03;;;;;;;1999.90;999.90;;;14.50;99.90;;;;;;5102445;28;20127;-66
2022/10/17 06:57:28;;;;;;;1999.90;999.90;;;14.60;99.90;;;;;;5110189;28;20043;-66
2022/10/17 06:59:56;;;;;;;1999.90;999.90;;;14.60;99.90;;;;;;5092362;28;20065;-66
2022/10/17 07:02:23;;;;;;;1999.90;999.90;;;14.70;99.90;;;;;;5110067;28;20412;-66
2022/10/17 07:04:48;;;;;;;1999.90;999.90;;;14.70;99.90;;;;;;5092859;28;20070;-66
2022/10/17 07:07:14;;;;;;;1999.90;999.90;;;14.80;99.90;;;;;;5090719;28;20048;-66
2022/10/17 07:09:40;;;;;;;1999.90;999.90;;;14.80;99.90;;;;;;5118691;27;20091;-66
2022/10/17 07:12:07;;;;;;;1999.90;999.90;;;14.90;99.90;;;;;;5085663;28;20516;-66
2022/10/17 07:14:33;;;;;;;1999.90;999.90;;;15.00;99.90;;;;;;5076136;28;20039;-66
2022/10/17 07:16:58;;;;;;;1999.90;999.90;;;15.00;99.90;;;;;;5080918;28;20035;-66
2022/10/17 07:19:25;;;;;;;1999.90;999.90;;;15.10;99.90;;;;;;5111825;27;20492;-66
2022/10/17 07:21:52;;;;;;;1999.90;999.90;;;15.20;99.90;;;;;;5110430;28;20492;-66
2022/10/17 07:24:17;;;;;;;1999.90;999.90;;;15.30;99.90;;;;;;5111500;27;20396;-66
2022/10/17 07:26:43;;;;;;;1999.90;999.90;;;15.40;99.90;;;;;;5112311;27;20047;-66
2022/10/17 07:29:09;;;;;;;1999.90;999.90;;;15.50;99.90;;;;;;5110491;27;20047;-66
2022/10/17 07:31:35;;;;;;;1999.90;999.90;;;15.60;99.90;;;;;;5109920;28;20047;-66
2022/10/17 07:34:01;;;;;;;1999.90;999.90;;;15.80;99.90;;;;;;5110471;28;20058;-66
2022/10/17 07:36:26;;;;;;;1999.90;999.90;;;15.90;99.90;;;;;;5092586;28;20400;-66
2022/10/17 07:38:52;;;;;;;1999.90;999.90;;;16.00;99.90;;;;;;5092906;28;20610;-66
2022/10/17 07:41:18;;;;;;;1999.90;999.90;;;16.10;99.90;;;;;;5104291;28;20044;-66
2022/10/17 07:43:44;;;;;;;1999.90;999.90;;;16.20;99.90;;;;;;5091213;28;20063;-66
2022/10/17 07:46:10;;;;;;;1999.90;999.90;;;16.20;99.90;;;;;;5093705;28;20048;-66
2022/10/17 07:48:38;;;;;;;1999.90;999.90;;;16.20;99.90;;;;;;5094567;28;20036;-66
2022/10/17 07:51:05;;;;;;;1999.90;999.90;;;16.20;99.90;;;;;;5091464;28;20055;-66
2022/10/17 07:53:31;;;;;;;1999.90;999.90;;;16.30;99.90;;;;;;5106592;28;20050;-66
2022/10/17 07:55:57;;;;;;;1999.90;999.90;;;16.30;99.90;;;;;;5106927;28;20397;-66
2022/10/17 07:58:23;;;;;;;1999.90;999.90;;;16.40;99.90;;;;;;5111529;27;20360;-66
2022/10/17 08:00:49;;;;;;;1999.90;999.90;;;16.50;99.90;;;;;;5103836;28;20042;-66
2022/10/17 08:03:17;;;;;;;1999.90;999.90;;;16.70;99.90;;;;;;5109146;28;20047;-66
2022/10/17 08:05:42;;;;;;;1999.90;999.90;;;16.80;99.90;;;;;;5103393;28;20104;-66
2022/10/17 08:08:08;;;;;;;1999.90;999.90;;;17.10;99.90;;;;;;5080200;28;20040;-66
2022/10/17 08:10:33;;;;;;;1999.90;999.90;;;17.20;99.90;;;;;;5089583;28;20043;-66
2022/10/17 08:13:00;;;;;;;1999.90;999.90;;;17.30;99.90;;;;;;5111104;27;20036;-66
2022/10/17 08:15:26;;;;;;;1999.90;999.90;;;17.30;99.90;;;;;;5094971;28;20027;-66
2022/10/17 08:17:54;;;;;;;1999.90;999.90;;;17.30;99.90;;;;;;5118074;27;20044;-65
2022/10/17 08:20:20;;;;;;;1999.90;999.90;;;17.30;99.90;;;;;;5083531;28;20050;-66
2022/10/17 08:22:52;;;;;;;1999.90;999.90;;;17.30;99.90;;;;;;5090861;28;20404;-66
2022/10/17 08:25:17;;;;;;;1999.90;999.90;;;17.30;99.90;;;;;;5100021;27;20043;-66
2022/10/17 08:27:43;;;;;;;1999.90;999.90;;;17.30;99.90;;;;;;5110798;27;20050;-66
2022/10/17 08:30:09;;;;;;;1999.90;999.90;;;17.30;99.90;;;;;;5113623;27;20055;-66
2022/10/17 08:32:34;;;;;;;1999.90;999.90;;;17.30;99.90;;;;;;5095373;28;20035;-68
2022/10/17 08:35:01;;;;;;;1999.90;999.90;;;17.40;99.90;;;;;;5094187;28;20092;-66
2022/10/17 08:37:26;;;;;;;1999.90;999.90;;;17.40;99.90;;;;;;5091448;28;20054;-66
2022/10/17 08:39:52;;;;;;;1999.90;999.90;;;17.50;99.90;;;;;;5107829;28;20031;-67
2022/10/17 08:42:45;;;;;;;1999.90;999.90;;;17.50;99.90;;;;;;5101582;28;20124;-66
2022/10/17 08:45:49;;;;;;;1999.90;999.90;;;17.60;99.90;;;;;;5095998;27;20534;-66
2022/10/17 08:48:19;;;;;;;1999.90;999.90;;;17.70;99.90;;;;;;5026012;28;20036;-66
2022/10/17 08:51:00;;;;;;;1999.90;999.90;;;17.70;99.90;;;;;;5093811;27;20055;-66
2022/10/17 08:53:39;;;;;;;1999.90;999.90;;;17.70;99.90;;;;;;5109593;27;20035;-66
2022/10/17 08:56:20;;;;;;;1999.90;999.90;;;17.80;99.90;;;;;;5100230;28;20044;-66
2022/10/17 08:58:46;;;;;;;1999.90;999.90;;;17.90;99.90;;;;;;5076080;27;20054;-66
2022/10/17 09:01:44;;;;;;;1999.90;999.90;;;17.90;99.90;;;;;;5100200;28;20051;-66
2022/10/17 09:04:35;;;;;;;1999.90;999.90;;;17.90;99.90;;;;;;5109121;27;20071;-65
2022/10/17 09:07:12;;;;;;;1999.90;999.90;;;17.90;99.90;;;;;;5102833;27;20054;-66
2022/10/17 09:10:01;;;;;;;1999.90;999.90;;;17.90;99.90;;;;;;5077786;28;20096;-66
2022/10/17 09:12:42;;;;;;;1999.90;999.90;;;17.90;99.90;;;;;;5099563;27;20400;-66
2022/10/17 09:15:43;;;;;;;1999.90;999.90;;;17.80;99.90;;;;;;5097400;28;20057;-66
2022/10/17 09:18:11;;;;;;;1999.90;999.90;;;17.80;99.90;;;;;;5103158;27;20556;-66
2022/10/17 09:20:56;;;;;;;1999.90;999.90;;;17.80;99.90;;;;;;5108532;27;20092;-66
2022/10/17 09:23:26;;;;;;;1999.90;999.90;;;17.70;99.90;;;;;;5110332;27;20047;-66
2022/10/17 09:25:55;;;;;;;1999.90;999.90;;;17.70;99.90;;;;;;5120172;27;20091;-66
2022/10/17 09:28:24;;;;;;;1999.90;999.90;;;17.70;99.90;;;;;;5091705;28;20059;-66
2022/10/17 09:31:26;;;;;;;1999.90;999.90;;;17.70;99.90;;;;;;5106709;28;20043;-66
2022/10/17 09:33:55;;;;;;;1999.90;999.90;;;17.60;99.90;;;;;;5086469;28;20044;-66
2022/10/17 09:36:28;;;;;;;1999.90;999.90;;;17.60;99.90;;;;;;5104179;28;20090;-65
2022/10/17 09:39:00;;;;;;;1999.90;999.90;;;17.60;99.90;;;;;;5108838;28;20082;-65
2022/10/17 09:41:39;;;;;;;1999.90;999.90;;;17.60;99.90;;;;;;5089150;28;20476;-66
2022/10/17 09:44:27;;;;;;;1999.90;999.90;;;17.50;99.90;;;;;;5076778;28;20055;-65
2022/10/17 09:47:06;;;;;;;1999.90;999.90;;;17.50;99.90;;;;;;5071959;28;20346;-66
2022/10/17 09:49:34;;;;;;;1999.90;999.90;;;17.50;99.90;;;;;;5108145;28;20050;-65
2022/10/17 09:52:04;;;;;;;1999.90;999.90;;;17.50;99.90;;;;;;5108592;28;20070;-65
2022/10/17 09:54:41;;;;;;;1999.90;999.90;;;17.40;99.90;;;;;;5112703;28;20124;-65
2022/10/17 09:57:09;;;;;;;1999.90;999.90;;;17.30;99.90;;;;;;5118882;27;20126;-66
2022/10/17 09:59:37;;;;;;;1999.90;999.90;;;17.30;99.90;;;;;;5085060;28;20078;-66
2022/10/17 10:02:22;;;;;;;1999.90;999.90;;;17.20;99.90;;;;;;5100394;28;20111;-65
2022/10/17 10:05:04;;;;;;;1999.90;999.90;;;17.10;99.90;;;;;;5089152;28;20051;-66
2022/10/17 10:07:38;;;;;;;1999.90;999.90;;;17.10;99.90;;;;;;5107539;28;20074;-66
2022/10/17 10:10:06;;;;;;;1999.90;999.90;;;17.00;99.90;;;;;;5081090;28;20071;-66
2022/10/17 10:12:35;;;;;;;1999.90;999.90;;;16.90;99.90;;;;;;5104253;28;20530;-65
2022/10/17 10:15:03;;;;;;;1999.90;999.90;;;16.90;99.90;;;;;;5105026;28;20078;-66
2022/10/17 10:17:40;;;;;;;1999.90;999.90;;;16.90;99.90;;;;;;5108199;28;20035;-66
2022/10/17 10:20:28;;;;;;;1999.90;999.90;;;16.80;99.90;;;;;;5108370;28;20031;-66
2022/10/17 10:23:12;;;;;;;1999.90;999.90;;;16.70;99.90;;;;;;5105271;28;20100;-66
2022/10/17 10:25:47;;;;;;;1999.90;999.90;;;16.70;99.90;;;;;;5077732;28;20044;-66
2022/10/17 10:28:15;;;;;;;1999.90;999.90;;;16.70;99.90;;;;;;5107987;27;20040;-66
2022/10/17 10:30:47;;;;;;;1999.90;999.90;;;16.70;99.90;;;;;;5109308;27;20066;-65
2022/10/17 10:33:13;;;;;;;1999.90;999.90;;;16.70;99.90;;;;;;5078396;28;20052;-65
2022/10/17 10:35:38;;;;;;;1999.90;999.90;;;16.70;99.90;;;;;;5110498;28;20036;-65
2022/10/17 10:38:12;;;;;;;1999.90;999.90;;;16.70;99.90;;;;;;5116285;27;20049;-65
2022/10/17 10:40:46;;;;;;;1999.90;999.90;;;16.80;99.90;;;;;;5112915;27;20039;-66
2022/10/17 10:43:30;;;;;;;1999.90;999.90;;;16.80;99.90;;;;;;5108577;27;20066;-65
2022/10/17 10:45:55;;;;;;;1999.90;999.90;;;16.80;99.90;;;;;;5112379;27;20079;-65
2022/10/17 10:48:23;;;;;;;1999.90;999.90;;;16.80;99.90;;;;;;5117444;27;20089;-65
2022/10/17 10:50:56;;;;;;;1999.90;999.90;;;16.80;99.90;;;;;;5106668;27;20454;-65
2022/10/17 10:53:37;;;;;;;1999.90;999.90;;;16.80;99.90;;;;;;5093313;27;20046;-65
2022/10/17 10:56:06;;;;;;;1999.90;999.90;;;16.80;99.90;;;;;;5107614;27;20036;-65
2022/10/17 10:58:51;;;;;;;1999.90;999.90;;;16.80;99.90;;;;;;5070701;28;20050;-65
2022/10/17 11:01:41;;;;;;;1999.90;999.90;;;16.90;99.90;;;;;;5090008;27;20075;-66
2022/10/17 11:04:20;;;;;;;1999.90;999.90;;;16.90;99.90;;;;;;5114384;27;20361;-66
2022/10/17 11:06:48;;;;;;;1999.90;999.90;;;16.90;99.90;;;;;;5105702;27;20039;-66
2022/10/17 11:09:41;;;;;;;1999.90;999.90;;;17.00;99.90;;;;;;5106933;27;20055;-66
2022/10/17 11:12:15;;;;;;;1999.90;999.90;;;17.00;99.90;;;;;;5104403;28;20131;-66
2022/10/17 11:15:11;;;;;;;1999.90;999.90;;;17.10;99.90;;;;;;5086574;28;20495;-66
2022/10/17 11:17:58;;;;;;;1999.90;999.90;;;17.10;99.90;;;;;;5095057;27;20048;-66
2022/10/17 11:20:56;;;;;;;1999.90;999.90;;;17.10;99.90;;;;;;5104860;27;20051;-66
2022/10/17 11:23:45;;;;;;;1999.90;999.90;;;17.20;99.90;;;;;;5104307;27;20096;-66
2022/10/17 11:26:24;;;;;;;1999.90;999.90;;;17.10;99.90;;;;;;5081862;28;20123;-65
2022/10/17 11:28:51;;;;;;;1999.90;999.90;;;17.10;99.90;;;;;;5101973;27;20040;-66
2022/10/17 11:31:18;;;;;;;1999.90;999.90;;;17.10;99.90;;;;;;5087283;27;20040;-66
2022/10/17 11:33:59;;;;;;;1999.90;999.90;;;17.10;99.90;;;;;;5101311;28;20110;-66
2022/10/17 11:36:30;;;;;;;1999.90;999.90;;;17.10;99.90;;;;;;5089335;28;20604;-66
2022/10/17 11:39:16;;;;;;;1999.90;999.90;;;17.10;99.90;;;;;;5110131;28;20036;-66
2022/10/17 11:41:52;;;;;;;1999.90;999.90;;;17.00;99.90;;;;;;5090983;28;20382;-66
2022/10/17 11:44:27;;;;;;;1999.90;999.90;;;17.00;99.90;;;;;;5108955;27;20454;-65
2022/10/17 11:46:58;;;;;;;1999.90;999.90;;;17.00;99.90;;;;;;5091146;28;20054;-66
2022/10/17 11:49:32;;;;;;;1999.90;999.90;;;17.00;99.90;;;;;;5083939;28;20052;-66
2022/10/17 11:52:22;;;;;;;1999.90;999.90;;;17.00;99.90;;;;;;5093805;27;20127;-66
2022/10/17 11:54:52;;;;;;;1999.90;999.90;;;17.00;99.90;;;;;;5109425;28;20489;-65
2022/10/17 11:57:29;;;;;;;1999.90;999.90;;;17.00;99.90;;;;;;5101822;28;20400;-65
2022/10/17 11:59:57;;;;;;;1999.90;999.90;;;16.90;99.90;;;;;;5114518;27;20041;-66
2022/10/17 12:02:49;;;;;;;1999.90;999.90;;;16.90;99.90;;;;;;5090553;28;20047;-66
2022/10/17 12:05:33;;;;;;;1999.90;999.90;;;16.90;99.90;;;;;;5091430;28;20147;-66
2022/10/17 12:08:15;;;;;;;1999.90;999.90;;;16.90;99.90;;;;;;5082009;27;20061;-66
2022/10/17 12:10:53;;;;;;;1999.90;999.90;;;17.00;99.90;;;;;;5101754;28;20136;-66
2022/10/17 12:13:28;;;;;;;1999.90;999.90;;;17.00;99.90;;;;;;5091107;27;20038;-66
2022/10/17 12:16:18;;;;;;;1999.90;999.90;;;17.10;99.90;;;;;;5103204;27;20044;-66
2022/10/17 12:18:44;;;;;;;1999.90;999.90;;;17.10;99.90;;;;;;5076792;28;20097;-66